Startpagina
METAR-TAF:

METAR-TAF

Vliegvelden :

Reims, Frankrijk

breedte: 49-12-31N, lengte: 004-09-24E, hoogte: 95 m

Actueel weer

Dit bericht is 40 minuten geleden gemaakt, om 03:00 UTC
Wind 4 kt uit het westen
Temperatuur 1°C
Vochtigheid 93%
Druk 1020 hPa
Zicht 10 km of meer
geen wolken onder 1500 m en geen cumulonimbus

METAR: LFQA 230300Z AUTO 27004KT CAVOK 01/M00 Q1020

Tijdstip: 05:40 (03:40 UTC)


TAF: ontbreekt

Waarnemingen en weersverwachtingen van meer dan 4000 vliegvelden (METAR en TAF).

De beschikbare stations zijn de gele en rode punten op de kaart.

Ga met uw muis naar het station om de naam te zien.

Klik dan om waarnemingen en weersverwachtingen te zien.

kaart wijzigen: klik op de groene knoppen met een zwart kruis om in te zoomen, op de groene knop met een streepje om uit te zoomen of op de groene pijlen voor aangrenzende kaarten.


METAR-TAF: